createdAt,value
2017-10-17T00:00:24.868Z,0.00
2017-10-17T00:01:24.869Z,0.00
2017-10-17T00:02:24.871Z,0.00
2017-10-17T00:03:24.873Z,0.00
2017-10-17T00:04:24.875Z,0.00
2017-10-17T00:05:24.877Z,0.00
2017-10-17T00:06:24.877Z,0.00
2017-10-17T00:07:24.880Z,0.00
2017-10-17T00:08:24.882Z,0.00
2017-10-17T00:09:24.886Z,0.00
2017-10-17T00:10:24.885Z,0.00
2017-10-17T00:11:24.889Z,0.00
2017-10-17T00:12:24.889Z,0.00
2017-10-17T00:13:24.893Z,0.00
2017-10-17T00:14:24.892Z,0.00
2017-10-17T00:15:24.895Z,0.00
2017-10-17T00:16:24.899Z,0.00
2017-10-17T00:17:24.899Z,0.00
2017-10-17T00:18:24.901Z,0.00
2017-10-17T00:19:24.904Z,0.00
2017-10-17T00:20:24.905Z,0.00
2017-10-17T00:21:24.906Z,0.00
2017-10-17T00:22:24.909Z,0.00
2017-10-17T00:23:24.910Z,0.00
2017-10-17T00:24:24.914Z,0.00
2017-10-17T00:25:24.917Z,0.00
2017-10-17T00:26:24.916Z,0.00
2017-10-17T00:27:24.920Z,0.00
2017-10-17T00:28:24.922Z,0.00
2017-10-17T00:29:24.924Z,0.00
2017-10-17T00:30:24.926Z,0.00
2017-10-17T00:31:24.927Z,0.00
2017-10-17T00:32:24.930Z,0.00
2017-10-17T00:33:24.932Z,0.00
2017-10-17T00:34:24.934Z,0.00
2017-10-17T00:35:24.934Z,0.00
2017-10-17T00:36:24.941Z,0.00
2017-10-17T00:37:24.938Z,0.00
2017-10-17T00:38:24.940Z,0.00
2017-10-17T00:39:24.941Z,0.00
2017-10-17T00:40:24.945Z,0.00
2017-10-17T00:41:24.946Z,0.00
2017-10-17T00:42:24.948Z,0.00
2017-10-17T00:43:24.951Z,0.00
2017-10-17T00:44:24.951Z,0.00
2017-10-17T00:45:24.954Z,0.00
2017-10-17T00:46:24.954Z,0.00
2017-10-17T00:47:24.957Z,0.00
2017-10-17T00:48:24.959Z,0.00
2017-10-17T00:49:24.961Z,0.00
2017-10-17T00:50:24.961Z,0.00
2017-10-17T00:51:24.964Z,0.00
2017-10-17T00:52:24.966Z,0.00
2017-10-17T00:53:24.969Z,0.00
2017-10-17T00:54:25.271Z,0.00
2017-10-17T00:55:24.972Z,0.00
2017-10-17T00:56:24.979Z,0.00
2017-10-17T00:57:24.975Z,0.00
2017-10-17T00:58:24.977Z,0.00
2017-10-17T00:59:24.978Z,0.00
2017-10-17T01:00:24.980Z,0.00
2017-10-17T01:01:24.982Z,0.00
2017-10-17T01:02:24.984Z,0.00
2017-10-17T01:03:24.986Z,0.00
2017-10-17T01:04:24.987Z,0.00
2017-10-17T01:05:24.989Z,0.00
2017-10-17T01:06:24.991Z,0.00
2017-10-17T01:07:24.992Z,0.00
2017-10-17T01:08:24.993Z,0.00
2017-10-17T01:09:24.996Z,0.00
2017-10-17T01:10:24.997Z,0.00
2017-10-17T01:11:24.998Z,0.00
2017-10-17T01:12:25.000Z,0.00
2017-10-17T01:13:25.002Z,0.00
2017-10-17T01:14:25.002Z,0.00
2017-10-17T01:15:25.006Z,0.00
2017-10-17T01:16:25.008Z,0.00
2017-10-17T01:17:25.009Z,0.00
2017-10-17T01:18:25.015Z,0.00
2017-10-17T01:19:25.013Z,0.00
2017-10-17T01:20:25.014Z,0.00
2017-10-17T01:21:25.016Z,0.00
2017-10-17T01:22:25.017Z,0.00
2017-10-17T01:23:25.019Z,0.00
2017-10-17T01:24:25.021Z,0.00
2017-10-17T01:25:25.023Z,0.00
2017-10-17T01:26:25.024Z,0.00
2017-10-17T01:27:25.025Z,0.00
2017-10-17T01:28:25.027Z,0.00
2017-10-17T01:29:25.028Z,0.00
2017-10-17T01:30:25.030Z,0.00
2017-10-17T01:31:25.031Z,0.00
2017-10-17T01:32:25.034Z,0.00
2017-10-17T01:33:25.034Z,0.00
2017-10-17T01:34:25.037Z,0.00
2017-10-17T01:35:25.036Z,0.00
2017-10-17T01:36:25.038Z,0.00
2017-10-17T01:37:25.041Z,0.00
2017-10-17T01:38:25.042Z,0.00
2017-10-17T01:39:25.043Z,0.00
2017-10-17T01:40:25.045Z,0.00
2017-10-17T01:41:25.047Z,0.00
2017-10-17T01:42:25.048Z,0.00
2017-10-17T01:43:25.050Z,0.00
2017-10-17T01:44:25.051Z,0.00
2017-10-17T01:45:25.054Z,0.00
2017-10-17T01:46:25.053Z,0.00
2017-10-17T01:47:25.057Z,0.00
2017-10-17T01:48:25.057Z,0.00
2017-10-17T01:49:25.059Z,0.00
2017-10-17T01:50:25.061Z,0.00
2017-10-17T01:51:25.075Z,0.00
2017-10-17T01:52:25.064Z,0.00
2017-10-17T01:53:25.065Z,0.00
2017-10-17T01:54:25.067Z,0.00
2017-10-17T01:55:25.069Z,0.00
2017-10-17T01:56:25.072Z,0.00
2017-10-17T01:57:25.071Z,0.00
2017-10-17T01:58:25.077Z,0.00
2017-10-17T01:59:25.076Z,0.00
2017-10-17T02:00:25.077Z,0.00
2017-10-17T02:01:25.097Z,0.00
2017-10-17T02:02:25.079Z,0.00
2017-10-17T02:03:25.080Z,0.00
2017-10-17T02:04:25.082Z,0.00
2017-10-17T02:05:25.084Z,0.00
2017-10-17T02:06:25.109Z,0.00
2017-10-17T02:07:25.087Z,0.00
2017-10-17T02:08:25.088Z,0.00
2017-10-17T02:09:25.090Z,0.00
2017-10-17T02:10:25.091Z,0.00
2017-10-17T02:11:25.094Z,0.00
2017-10-17T02:12:25.095Z,0.00
2017-10-17T02:13:25.096Z,0.00
2017-10-17T02:14:25.098Z,0.00
2017-10-17T02:15:25.098Z,0.00
2017-10-17T02:16:25.100Z,0.00
2017-10-17T02:17:25.102Z,0.00
2017-10-17T02:18:25.104Z,0.00
2017-10-17T02:19:25.105Z,0.00
2017-10-17T02:20:25.107Z,0.00
2017-10-17T02:21:25.108Z,0.00
2017-10-17T02:22:25.109Z,0.00
2017-10-17T02:23:25.110Z,0.00
2017-10-17T02:24:25.113Z,0.00
2017-10-17T02:25:25.114Z,0.00
2017-10-17T02:26:25.121Z,0.00
2017-10-17T02:27:25.117Z,0.00
2017-10-17T02:28:25.119Z,0.00
2017-10-17T02:29:25.121Z,0.00
2017-10-17T02:30:25.125Z,0.00
2017-10-17T02:31:25.124Z,0.00
2017-10-17T02:32:25.124Z,0.00
2017-10-17T02:33:25.127Z,0.00
2017-10-17T02:34:25.128Z,0.00
2017-10-17T02:35:25.130Z,0.00
2017-10-17T02:36:25.132Z,0.00
2017-10-17T02:37:25.133Z,0.00
2017-10-17T02:38:25.135Z,0.00
2017-10-17T02:39:25.136Z,0.00
2017-10-17T02:40:25.137Z,0.00
2017-10-17T02:41:25.139Z,0.00
2017-10-17T02:42:25.140Z,0.00
2017-10-17T02:43:25.141Z,0.00
2017-10-17T02:44:25.143Z,0.00
2017-10-17T02:45:25.146Z,0.00
2017-10-17T02:46:25.146Z,0.00
2017-10-17T02:47:25.150Z,0.00
2017-10-17T02:48:25.150Z,0.00
2017-10-17T02:49:25.152Z,0.00
2017-10-17T02:50:25.153Z,0.00
2017-10-17T02:51:25.156Z,0.00
2017-10-17T02:52:25.155Z,0.00
2017-10-17T02:53:25.157Z,0.00
2017-10-17T02:54:25.163Z,0.00
2017-10-17T02:55:25.160Z,0.00
2017-10-17T02:56:25.163Z,0.00
2017-10-17T02:57:25.164Z,0.00
2017-10-17T02:58:25.165Z,0.00
2017-10-17T02:59:25.169Z,0.00
2017-10-17T03:00:25.169Z,0.00
2017-10-17T03:01:25.170Z,0.00
2017-10-17T03:02:25.172Z,0.00
2017-10-17T03:03:25.172Z,0.00
2017-10-17T03:04:25.175Z,0.00
2017-10-17T03:05:25.176Z,0.00
2017-10-17T03:06:25.178Z,0.00
2017-10-17T03:07:25.179Z,0.00
2017-10-17T03:08:25.183Z,0.00
2017-10-17T03:09:25.188Z,0.00
2017-10-17T03:10:25.182Z,0.00
2017-10-17T03:11:25.185Z,0.00
2017-10-17T03:12:25.188Z,0.00
2017-10-17T03:13:25.189Z,0.00
2017-10-17T03:14:25.193Z,0.00
2017-10-17T03:15:25.192Z,0.00
2017-10-17T03:16:25.192Z,0.00
2017-10-17T03:17:25.195Z,0.00
2017-10-17T03:18:25.196Z,0.00
2017-10-17T03:19:25.198Z,0.00
2017-10-17T03:20:25.200Z,0.00
2017-10-17T03:21:25.201Z,0.00
2017-10-17T03:22:25.202Z,0.00
2017-10-17T03:23:25.210Z,0.00
2017-10-17T03:24:25.205Z,0.00
2017-10-17T03:25:25.207Z,0.00
2017-10-17T03:26:25.227Z,0.00
2017-10-17T03:27:25.219Z,0.00
2017-10-17T03:28:25.233Z,0.00
2017-10-17T03:29:25.213Z,0.00
2017-10-17T03:30:25.215Z,0.00
2017-10-17T03:31:25.215Z,0.00
2017-10-17T03:32:25.219Z,0.00
2017-10-17T03:33:25.221Z,0.00
2017-10-17T03:34:25.220Z,0.00
2017-10-17T03:35:25.222Z,0.00
2017-10-17T03:36:25.223Z,0.00
2017-10-17T03:37:25.227Z,0.00
2017-10-17T03:38:25.226Z,0.00
2017-10-17T03:39:25.227Z,0.00
2017-10-17T03:40:25.229Z,0.00
2017-10-17T03:41:25.232Z,0.00
2017-10-17T03:42:25.232Z,0.00
2017-10-17T03:43:25.233Z,0.00
2017-10-17T03:44:25.240Z,0.00
2017-10-17T03:45:25.236Z,0.00
2017-10-17T03:46:25.238Z,0.00
2017-10-17T03:47:25.243Z,0.00
2017-10-17T03:48:25.242Z,0.00
2017-10-17T03:49:25.261Z,0.00
2017-10-17T03:50:25.243Z,0.00
2017-10-17T03:51:25.246Z,0.00
2017-10-17T03:52:25.247Z,0.00
2017-10-17T03:53:25.249Z,0.00
2017-10-17T03:54:25.251Z,0.00
2017-10-17T03:55:25.252Z,0.00
2017-10-17T03:56:25.253Z,0.00
2017-10-17T03:57:25.255Z,0.00
2017-10-17T03:58:25.255Z,0.00
2017-10-17T03:59:25.258Z,0.00
2017-10-17T04:00:25.259Z,0.00
2017-10-17T04:01:25.262Z,0.00
2017-10-17T04:02:25.264Z,0.00
2017-10-17T04:03:25.264Z,0.00
2017-10-17T04:04:25.264Z,0.00
2017-10-17T04:05:25.272Z,0.00
2017-10-17T04:06:25.268Z,0.00
2017-10-17T04:07:25.268Z,0.00
2017-10-17T04:08:25.269Z,0.00
2017-10-17T04:09:25.271Z,0.00
2017-10-17T04:10:25.272Z,0.00
2017-10-17T04:11:25.275Z,0.00
2017-10-17T04:12:25.275Z,0.00
2017-10-17T04:13:25.276Z,0.00
2017-10-17T04:14:25.280Z,0.00
2017-10-17T04:15:25.281Z,0.00
2017-10-17T04:16:25.280Z,0.00
2017-10-17T04:17:25.284Z,0.00
2017-10-17T04:18:25.283Z,0.00
2017-10-17T04:19:25.286Z,0.00
2017-10-17T04:20:25.285Z,0.00
2017-10-17T04:21:25.288Z,0.00
2017-10-17T04:22:25.289Z,0.00
2017-10-17T04:23:25.291Z,0.00
2017-10-17T04:24:25.293Z,0.00
2017-10-17T04:25:25.293Z,0.00
2017-10-17T04:26:25.295Z,0.00
2017-10-17T04:27:25.295Z,0.00
2017-10-17T04:28:25.297Z,0.00
2017-10-17T04:29:25.302Z,0.00
2017-10-17T04:30:25.298Z,0.00
2017-10-17T04:31:25.302Z,0.00
2017-10-17T04:32:25.303Z,0.00
2017-10-17T04:33:25.304Z,0.00
2017-10-17T04:34:25.304Z,0.00
2017-10-17T04:35:25.320Z,0.00
2017-10-17T04:36:25.307Z,0.00
2017-10-17T04:37:25.309Z,0.00
2017-10-17T04:38:25.308Z,0.00
2017-10-17T04:39:25.311Z,0.00
2017-10-17T04:40:25.312Z,0.00
2017-10-17T04:41:25.313Z,0.00
2017-10-17T04:42:25.314Z,0.00
2017-10-17T04:43:25.317Z,0.00
2017-10-17T04:44:25.316Z,0.00
2017-10-17T04:45:25.318Z,0.00
2017-10-17T04:46:25.319Z,0.00
2017-10-17T04:47:25.321Z,0.00
2017-10-17T04:48:25.321Z,0.00
2017-10-17T04:49:25.326Z,0.00
2017-10-17T04:50:25.326Z,0.00
2017-10-17T04:51:25.324Z,0.00
2017-10-17T04:52:25.326Z,0.00
2017-10-17T04:53:25.327Z,0.00
2017-10-17T04:54:25.329Z,0.00
2017-10-17T04:55:25.331Z,0.00
2017-10-17T04:56:25.332Z,0.00
2017-10-17T04:57:25.333Z,0.00
2017-10-17T04:58:25.332Z,0.00
2017-10-17T04:59:25.334Z,0.00
2017-10-17T05:00:25.335Z,0.00
2017-10-17T05:01:25.337Z,0.00
2017-10-17T05:02:25.336Z,0.00
2017-10-17T05:03:25.338Z,0.00
2017-10-17T05:04:25.339Z,0.00
2017-10-17T05:05:25.341Z,4.00
2017-10-17T05:06:25.341Z,0.00
2017-10-17T05:07:25.343Z,0.00
2017-10-17T05:08:25.344Z,4.00
2017-10-17T05:09:25.345Z,4.00
2017-10-17T05:10:25.346Z,4.00
2017-10-17T05:11:25.349Z,4.00
2017-10-17T05:12:25.349Z,8.00
2017-10-17T05:13:25.350Z,4.00
2017-10-17T05:14:25.349Z,8.00
2017-10-17T05:15:25.352Z,12.00
2017-10-17T05:16:25.352Z,12.00
2017-10-17T05:17:25.355Z,16.00
2017-10-17T05:18:25.353Z,16.00
2017-10-17T05:19:25.354Z,20.00
2017-10-17T05:20:25.357Z,20.00
2017-10-17T05:21:25.361Z,28.00
2017-10-17T05:22:25.357Z,32.00
2017-10-17T05:23:25.357Z,36.00
2017-10-17T05:24:25.359Z,44.00
2017-10-17T05:25:25.360Z,52.00
2017-10-17T05:26:25.395Z,60.00
2017-10-17T05:27:25.361Z,68.00
2017-10-17T05:28:25.362Z,76.00
2017-10-17T05:29:25.365Z,88.00
2017-10-17T05:30:25.363Z,96.00
2017-10-17T05:31:25.364Z,108.00
2017-10-17T05:32:25.366Z,120.00
2017-10-17T05:33:25.367Z,132.00
2017-10-17T05:34:25.368Z,148.00
2017-10-17T05:35:25.367Z,164.00
2017-10-17T05:36:25.369Z,184.00
2017-10-17T05:37:25.370Z,200.00
2017-10-17T05:38:25.371Z,216.00
2017-10-17T05:39:25.372Z,236.00
2017-10-17T05:40:25.374Z,252.00
2017-10-17T05:41:25.374Z,276.00
2017-10-17T05:42:25.374Z,296.00
2017-10-17T05:43:25.375Z,316.00
2017-10-17T05:44:25.376Z,336.00
2017-10-17T05:45:25.378Z,364.00
2017-10-17T05:46:25.376Z,384.00
2017-10-17T05:47:25.377Z,408.00
2017-10-17T05:48:25.378Z,432.00
2017-10-17T05:49:25.381Z,456.00
2017-10-17T05:50:25.380Z,476.00
2017-10-17T05:51:25.386Z,504.00
2017-10-17T05:52:25.382Z,528.00
2017-10-17T05:53:25.384Z,552.00
2017-10-17T05:54:25.384Z,580.00
2017-10-17T05:55:25.385Z,604.00
2017-10-17T05:56:25.387Z,632.00
2017-10-17T05:57:25.388Z,656.00
2017-10-17T05:58:25.388Z,680.00
2017-10-17T05:59:25.388Z,724.00
2017-10-17T06:00:25.389Z,964.00
2017-10-17T06:01:25.391Z,1012.00
2017-10-17T06:02:25.392Z,1012.00
2017-10-17T06:03:25.392Z,912.00
2017-10-17T06:04:25.400Z,844.00
2017-10-17T06:05:25.394Z,876.00
2017-10-17T06:06:25.395Z,908.00
2017-10-17T06:07:25.396Z,1040.00
2017-10-17T06:08:25.397Z,1104.00
2017-10-17T06:09:25.399Z,1424.00
2017-10-17T06:10:25.397Z,1312.00
2017-10-17T06:11:25.399Z,1008.00
2017-10-17T06:12:25.400Z,1004.00
2017-10-17T06:13:25.400Z,1020.00
2017-10-17T06:14:25.403Z,1040.00
2017-10-17T06:15:25.403Z,1128.00
2017-10-17T06:16:25.404Z,1240.00
2017-10-17T06:17:25.411Z,1136.00
2017-10-17T06:18:25.406Z,1120.00
2017-10-17T06:19:25.407Z,1140.00
2017-10-17T06:20:25.423Z,1184.00
2017-10-17T06:21:25.409Z,1196.00
2017-10-17T06:22:25.409Z,1212.00
2017-10-17T06:23:25.410Z,1248.00
2017-10-17T06:24:25.413Z,1256.00
2017-10-17T06:25:25.413Z,1312.00
2017-10-17T06:26:25.414Z,1328.00
2017-10-17T06:27:25.419Z,1440.00
2017-10-17T06:28:25.416Z,1516.00
2017-10-17T06:29:25.418Z,1336.00
2017-10-17T06:30:25.417Z,1344.00
2017-10-17T06:31:25.419Z,1416.00
2017-10-17T06:32:25.420Z,1408.00
2017-10-17T06:33:25.426Z,1408.00
2017-10-17T06:34:25.423Z,1432.00
2017-10-17T06:35:25.423Z,1480.00
2017-10-17T06:36:25.426Z,1536.00
2017-10-17T06:37:25.425Z,1588.00
2017-10-17T06:38:25.427Z,1528.00
2017-10-17T06:39:25.458Z,1560.00
2017-10-17T06:40:25.429Z,1560.00
2017-10-17T06:41:25.430Z,1616.00
2017-10-17T06:42:25.431Z,1684.00
2017-10-17T06:43:25.433Z,2476.00
2017-10-17T06:44:25.434Z,2644.00
2017-10-17T06:45:25.435Z,1740.00
2017-10-17T06:46:25.435Z,1772.00
2017-10-17T06:47:25.436Z,1748.00
2017-10-17T06:48:25.438Z,1768.00
2017-10-17T06:49:25.439Z,1820.00
2017-10-17T06:50:25.440Z,1852.00
2017-10-17T06:51:25.442Z,1848.00
2017-10-17T06:52:25.443Z,1880.00
2017-10-17T06:53:25.445Z,1944.00
2017-10-17T06:54:25.444Z,1936.00
2017-10-17T06:55:25.446Z,2032.00
2017-10-17T06:56:25.448Z,2612.00
2017-10-17T06:57:25.451Z,14568.00
2017-10-17T06:58:25.452Z,34912.00
2017-10-17T06:59:25.455Z,34848.00
2017-10-17T07:00:25.454Z,31200.00
2017-10-17T07:01:25.457Z,25056.00
2017-10-17T07:02:25.458Z,18528.00
2017-10-17T07:03:25.463Z,16672.00
2017-10-17T07:04:25.465Z,19744.00
2017-10-17T07:05:25.468Z,23936.00
2017-10-17T07:06:25.470Z,37408.00
2017-10-17T07:07:25.475Z,47904.00
2017-10-17T07:08:25.481Z,46688.00
2017-10-17T07:09:25.485Z,19808.00
2017-10-17T07:10:25.490Z,11896.00
2017-10-17T07:11:25.494Z,23648.00
2017-10-17T07:12:25.500Z,18752.00
2017-10-17T07:13:25.505Z,13248.00
2017-10-17T07:14:25.510Z,8252.00
2017-10-17T07:15:25.516Z,4816.00
2017-10-17T07:16:25.521Z,3800.00
2017-10-17T07:17:25.527Z,4464.00
2017-10-17T07:18:25.531Z,6344.00
2017-10-17T07:19:25.536Z,8692.00
2017-10-17T07:20:25.542Z,9192.00
2017-10-17T07:21:25.546Z,6360.00
2017-10-17T07:22:25.550Z,6652.00
2017-10-17T07:23:25.555Z,4264.00
2017-10-17T07:24:25.561Z,4412.00
2017-10-17T07:25:25.565Z,5604.00
2017-10-17T07:26:25.570Z,4936.00
2017-10-17T07:27:25.574Z,4628.00
2017-10-17T07:28:25.579Z,4828.00
2017-10-17T07:29:25.590Z,10860.00
2017-10-17T07:30:25.588Z,11988.00
2017-10-17T07:31:25.593Z,11004.00
2017-10-17T07:32:25.598Z,21824.00
2017-10-17T07:33:25.602Z,14056.00
2017-10-17T07:34:25.605Z,5240.00
2017-10-17T07:35:25.612Z,10952.00
2017-10-17T07:36:25.616Z,14132.00
2017-10-17T07:37:25.621Z,8748.00
2017-10-17T07:38:25.624Z,4388.00
2017-10-17T07:39:25.630Z,5644.00
2017-10-17T07:40:25.637Z,6148.00
2017-10-17T07:41:25.640Z,8104.00
2017-10-17T07:42:25.644Z,18336.00
2017-10-17T07:43:25.650Z,34016.00
2017-10-17T07:44:25.654Z,23040.00
2017-10-17T07:45:25.661Z,13376.00
2017-10-17T07:46:25.664Z,5656.00
2017-10-17T07:47:25.670Z,7032.00
2017-10-17T07:48:25.679Z,7048.00
2017-10-17T07:49:25.680Z,5244.00
2017-10-17T07:50:25.685Z,5520.00
2017-10-17T07:51:25.696Z,11264.00
2017-10-17T07:52:25.697Z,23072.00
2017-10-17T07:53:25.701Z,35520.00
2017-10-17T07:54:25.706Z,24896.00
2017-10-17T07:55:25.711Z,25568.00
2017-10-17T07:56:25.717Z,21856.00
2017-10-17T07:57:25.728Z,13532.00
2017-10-17T07:58:25.727Z,12224.00
2017-10-17T07:59:25.735Z,17920.00
2017-10-17T08:00:25.741Z,37568.00
2017-10-17T08:01:25.748Z,57504.00
2017-10-17T08:02:25.754Z,53632.00
2017-10-17T08:03:25.761Z,63392.00
2017-10-17T08:04:25.767Z,69024.00
2017-10-17T08:05:25.775Z,62784.00
2017-10-17T08:06:25.783Z,70528.00
2017-10-17T08:07:25.790Z,52672.00
2017-10-17T08:08:25.800Z,35008.00
2017-10-17T08:09:25.809Z,21728.00
2017-10-17T08:10:25.817Z,22816.00
2017-10-17T08:11:25.827Z,6196.00
2017-10-17T08:12:25.835Z,4504.00
2017-10-17T08:13:25.845Z,4452.00
2017-10-17T08:14:25.854Z,4208.00
2017-10-17T08:15:25.863Z,7204.00
2017-10-17T08:16:25.870Z,16608.00
2017-10-17T08:17:25.879Z,18368.00
2017-10-17T08:18:25.888Z,8256.00
2017-10-17T08:19:25.895Z,15008.00
2017-10-17T08:20:25.903Z,26272.00
2017-10-17T08:21:25.916Z,28160.00
2017-10-17T08:22:25.918Z,37760.00
2017-10-17T08:23:25.928Z,50112.00
2017-10-17T08:24:25.936Z,50752.00
2017-10-17T08:25:25.944Z,43936.00
2017-10-17T08:26:25.953Z,42016.00
2017-10-17T08:27:25.962Z,45632.00
2017-10-17T08:28:25.972Z,34976.00
2017-10-17T08:29:25.982Z,63424.00
2017-10-17T08:30:25.989Z,69792.00
2017-10-17T08:31:26.005Z,24576.00
2017-10-17T08:32:26.009Z,13784.00
2017-10-17T08:33:26.020Z,10952.00
2017-10-17T08:34:26.030Z,21216.00
2017-10-17T08:35:26.040Z,45344.00
2017-10-17T08:36:26.050Z,57696.00
2017-10-17T08:37:26.060Z,44640.00
2017-10-17T08:38:26.069Z,52288.00
2017-10-17T08:39:26.082Z,68512.00
2017-10-17T08:40:26.092Z,35840.00
2017-10-17T08:41:26.106Z,37024.00
2017-10-17T08:42:26.114Z,42912.00
2017-10-17T08:43:26.126Z,54144.00
2017-10-17T08:44:26.138Z,57344.00
2017-10-17T08:45:26.150Z,52800.00
2017-10-17T08:46:26.162Z,40960.00
2017-10-17T08:47:26.174Z,43200.00
2017-10-17T08:48:26.190Z,17312.00
2017-10-17T08:49:26.200Z,8420.00
2017-10-17T08:50:26.210Z,11140.00
2017-10-17T08:51:26.222Z,8932.00
2017-10-17T08:52:26.235Z,17632.00
2017-10-17T08:53:26.245Z,5004.00
2017-10-17T08:54:26.254Z,4508.00
2017-10-17T08:55:26.272Z,8572.00
2017-10-17T08:56:26.281Z,11364.00
2017-10-17T08:57:26.286Z,5916.00
2017-10-17T08:58:26.295Z,12556.00
2017-10-17T08:59:26.308Z,39616.00
2017-10-17T09:00:26.317Z,49760.00
2017-10-17T09:01:26.327Z,55168.00
2017-10-17T09:02:26.336Z,45216.00
2017-10-17T09:03:26.346Z,31552.00
2017-10-17T09:04:26.357Z,32224.00
2017-10-17T09:05:26.374Z,36384.00
2017-10-17T09:06:26.378Z,47360.00
2017-10-17T09:07:26.389Z,36832.00
2017-10-17T09:08:26.402Z,41056.00
2017-10-17T09:09:26.414Z,45184.00
2017-10-17T09:10:26.426Z,51136.00
2017-10-17T09:11:26.437Z,50848.00
2017-10-17T09:12:26.453Z,52544.00
2017-10-17T09:13:26.465Z,53792.00
2017-10-17T09:14:26.475Z,53152.00
2017-10-17T09:15:26.489Z,54304.00
2017-10-17T09:16:26.503Z,54752.00
2017-10-17T09:17:26.517Z,43008.00
2017-10-17T09:18:26.530Z,34144.00
2017-10-17T09:19:26.544Z,27296.00
2017-10-17T09:20:26.557Z,23168.00
2017-10-17T09:21:26.571Z,14940.00
2017-10-17T09:22:26.585Z,17056.00
2017-10-17T09:23:26.597Z,23744.00
2017-10-17T09:24:26.614Z,23904.00
2017-10-17T09:25:26.624Z,11384.00
2017-10-17T09:26:26.635Z,12920.00
2017-10-17T09:27:26.648Z,28960.00
2017-10-17T09:28:26.662Z,51552.00
2017-10-17T09:29:26.674Z,64832.00
2017-10-17T09:30:26.684Z,33056.00
2017-10-17T09:31:26.696Z,9736.00
2017-10-17T09:32:26.711Z,7908.00
2017-10-17T09:33:26.722Z,9752.00
2017-10-17T09:34:26.733Z,11884.00
2017-10-17T09:35:26.747Z,11244.00
2017-10-17T09:36:26.757Z,12684.00
2017-10-17T09:37:26.770Z,12888.00
2017-10-17T09:38:26.781Z,10228.00
2017-10-17T09:39:26.793Z,11816.00
2017-10-17T09:40:26.805Z,11952.00
2017-10-17T09:41:26.819Z,9708.00
2017-10-17T09:42:26.828Z,8956.00
2017-10-17T09:43:26.841Z,7988.00
2017-10-17T09:44:26.854Z,8924.00
2017-10-17T09:45:26.866Z,12348.00
2017-10-17T09:46:26.875Z,13804.00
2017-10-17T09:47:26.888Z,19872.00
2017-10-17T09:48:26.899Z,22496.00
2017-10-17T09:49:26.912Z,29376.00
2017-10-17T09:50:26.922Z,31040.00
2017-10-17T09:51:26.934Z,32864.00
2017-10-17T09:52:26.947Z,42048.00
2017-10-17T09:53:26.968Z,46944.00
2017-10-17T09:54:26.971Z,47552.00
2017-10-17T09:55:26.983Z,47136.00
2017-10-17T09:56:26.997Z,48160.00
2017-10-17T09:57:27.009Z,47904.00
2017-10-17T09:58:27.022Z,47168.00
2017-10-17T09:59:27.038Z,49728.00
2017-10-17T10:00:27.051Z,47136.00
2017-10-17T10:01:27.066Z,47456.00
2017-10-17T10:02:27.080Z,49408.00
2017-10-17T10:03:27.095Z,46304.00
2017-10-17T10:04:27.111Z,47808.00
2017-10-17T10:05:27.125Z,45728.00
2017-10-17T10:06:27.141Z,45344.00
2017-10-17T10:07:27.155Z,45920.00
2017-10-17T10:08:27.179Z,46144.00
2017-10-17T10:09:27.189Z,44800.00
2017-10-17T10:10:27.204Z,43392.00
2017-10-17T10:11:27.220Z,39936.00
2017-10-17T10:12:27.237Z,42208.00
2017-10-17T10:13:27.253Z,42176.00
2017-10-17T10:14:27.270Z,41952.00
2017-10-17T10:15:27.286Z,38848.00
2017-10-17T10:16:27.303Z,40128.00
2017-10-17T10:17:27.323Z,38176.00
2017-10-17T10:18:27.336Z,39840.00
2017-10-17T10:19:27.352Z,39264.00
2017-10-17T10:20:27.371Z,38688.00
2017-10-17T10:21:27.386Z,36512.00
2017-10-17T10:22:27.403Z,34848.00
2017-10-17T10:23:27.419Z,36672.00
2017-10-17T10:24:27.437Z,36672.00
2017-10-17T10:25:27.454Z,35168.00
2017-10-17T10:26:27.478Z,34240.00
2017-10-17T10:27:27.489Z,34240.00
2017-10-17T10:28:27.506Z,32352.00
2017-10-17T10:29:27.523Z,31264.00
2017-10-17T10:30:27.540Z,32224.00
2017-10-17T10:31:27.557Z,32608.00
2017-10-17T10:32:27.576Z,30944.00
2017-10-17T10:33:27.594Z,30144.00
2017-10-17T10:34:27.610Z,29856.00
2017-10-17T10:35:27.632Z,29952.00
2017-10-17T10:36:27.645Z,28032.00
2017-10-17T10:37:27.664Z,27616.00
2017-10-17T10:38:27.679Z,24352.00
2017-10-17T10:39:27.697Z,24480.00
2017-10-17T10:40:27.715Z,23808.00
2017-10-17T10:41:27.732Z,22272.00
2017-10-17T10:42:27.749Z,22304.00
2017-10-17T10:43:27.765Z,20960.00
2017-10-17T10:44:27.783Z,20384.00
2017-10-17T10:45:27.801Z,16800.00
2017-10-17T10:46:27.817Z,17024.00
2017-10-17T10:47:27.833Z,17536.00
2017-10-17T10:48:27.849Z,15264.00
2017-10-17T10:49:27.868Z,15264.00
2017-10-17T10:50:27.883Z,15104.00
2017-10-17T10:51:27.899Z,14720.00
2017-10-17T10:52:27.916Z,12656.00
2017-10-17T10:53:27.944Z,15616.00
2017-10-17T10:54:27.947Z,16384.00
2017-10-17T10:55:27.965Z,16256.00
2017-10-17T10:56:27.981Z,15328.00
2017-10-17T10:57:27.998Z,17152.00
2017-10-17T10:58:28.011Z,17536.00
2017-10-17T10:59:28.028Z,19008.00
2017-10-17T11:00:28.041Z,21664.00
2017-10-17T11:01:28.058Z,20160.00
2017-10-17T11:02:28.073Z,17056.00
2017-10-17T11:03:28.090Z,19264.00
2017-10-17T11:04:28.104Z,22816.00
2017-10-17T11:05:28.121Z,20704.00
2017-10-17T11:06:28.133Z,23232.00
2017-10-17T11:07:28.149Z,19968.00
2017-10-17T11:08:28.165Z,11032.00
2017-10-17T11:09:28.180Z,13292.00
2017-10-17T11:10:28.197Z,19488.00
2017-10-17T11:11:28.209Z,20736.00
2017-10-17T11:12:28.225Z,23168.00
2017-10-17T11:13:28.242Z,23936.00
2017-10-17T11:14:28.251Z,23456.00
2017-10-17T11:15:28.268Z,22944.00
2017-10-17T11:16:28.282Z,19264.00
2017-10-17T11:17:28.296Z,18720.00
2017-10-17T11:18:28.311Z,21600.00
2017-10-17T11:19:28.325Z,20544.00
2017-10-17T11:20:28.343Z,18432.00
2017-10-17T11:21:28.354Z,16128.00
2017-10-17T11:22:28.369Z,12304.00
2017-10-17T11:23:28.383Z,8364.00
2017-10-17T11:24:28.397Z,8384.00
2017-10-17T11:25:28.411Z,14192.00
2017-10-17T11:26:28.425Z,20192.00
2017-10-17T11:27:28.438Z,16992.00
2017-10-17T11:28:28.453Z,17408.00
2017-10-17T11:29:28.466Z,19712.00
2017-10-17T11:30:28.481Z,15808.00
2017-10-17T11:31:28.498Z,13104.00
2017-10-17T11:32:28.508Z,18624.00
2017-10-17T11:33:28.522Z,17824.00
2017-10-17T11:34:28.538Z,16544.00
2017-10-17T11:35:28.550Z,14648.00
2017-10-17T11:36:28.563Z,13108.00
2017-10-17T11:37:28.577Z,17440.00
2017-10-17T11:38:28.589Z,17056.00
2017-10-17T11:39:28.603Z,18272.00
2017-10-17T11:40:28.616Z,18336.00
2017-10-17T11:41:28.631Z,19392.00
2017-10-17T11:42:28.645Z,21984.00
2017-10-17T11:43:28.657Z,20832.00
2017-10-17T11:44:28.670Z,23296.00
2017-10-17T11:45:28.685Z,20480.00
2017-10-17T11:46:28.698Z,19040.00
2017-10-17T11:47:28.712Z,20576.00
2017-10-17T11:48:28.728Z,20128.00
2017-10-17T11:49:28.740Z,17536.00
2017-10-17T11:50:28.753Z,13932.00
2017-10-17T11:51:28.767Z,16064.00
2017-10-17T11:52:28.781Z,18816.00
2017-10-17T11:53:28.795Z,18496.00
2017-10-17T11:54:28.809Z,15744.00
2017-10-17T11:55:28.823Z,16224.00
2017-10-17T11:56:28.837Z,20064.00
2017-10-17T11:57:28.851Z,14528.00
2017-10-17T11:58:28.864Z,19584.00
2017-10-17T11:59:28.879Z,20576.00
2017-10-17T12:00:28.892Z,17536.00
2017-10-17T12:01:28.909Z,18208.00
2017-10-17T12:02:28.920Z,17696.00
2017-10-17T12:03:28.934Z,16256.00
2017-10-17T12:04:28.946Z,16384.00
2017-10-17T12:05:28.967Z,17376.00
2017-10-17T12:06:28.973Z,16352.00
2017-10-17T12:07:28.987Z,16608.00
2017-10-17T12:08:29.002Z,17472.00
2017-10-17T12:09:29.014Z,20032.00
2017-10-17T12:10:29.026Z,20896.00
2017-10-17T12:11:29.040Z,20832.00
2017-10-17T12:12:29.054Z,21536.00
2017-10-17T12:13:29.066Z,20672.00
2017-10-17T12:14:29.079Z,18880.00
2017-10-17T12:15:29.093Z,21024.00
2017-10-17T12:16:29.106Z,19488.00
2017-10-17T12:17:29.120Z,21152.00
2017-10-17T12:18:29.131Z,22624.00
2017-10-17T12:19:29.146Z,22624.00
2017-10-17T12:20:29.159Z,21312.00
2017-10-17T12:21:29.173Z,20480.00
2017-10-17T12:22:29.184Z,18048.00
2017-10-17T12:23:29.199Z,17344.00
2017-10-17T12:24:29.211Z,17184.00
2017-10-17T12:25:29.226Z,20192.00
2017-10-17T12:26:29.240Z,22880.00
2017-10-17T12:27:29.253Z,21376.00